Time;durP1;ratioP1;P1;durP2;ratioP2;P2;SDS_P1;SDS_P2;PMS_P1;PMS_P2;Temp;Humidity;BMP_temperature;BMP_pressure;BME280_temperature;BME280_humidity;BME280_pressure;Samples;Min_cycle;Max_cycle;Signal;HPM_P1;HPM_P2
2022/04/23 00:01:58;;;;;;;;;24.67;20.33;;;;;17.87;40.34;99556.28;5098110;27;45503;-85
2022/04/23 00:04:24;;;;;;;;;25.67;20.00;;;;;18.13;40.43;99598.84;5078613;27;45394;-85
2022/04/23 00:06:49;;;;;;;;;28.00;27.33;;;;;17.99;40.55;99578.56;5089930;27;45318;-85
2022/04/23 00:09:15;;;;;;;;;30.67;27.00;;;;;17.72;40.67;99544.19;5079628;27;45576;-85
2022/04/23 00:11:40;;;;;;;;;34.67;30.33;;;;;17.75;41.19;99559.22;5084202;27;46191;-85
2022/04/23 00:14:07;;;;;;;;;30.33;29.67;;;;;17.72;41.06;99545.06;5097195;27;45400;-85
2022/04/23 00:16:32;;;;;;;;;34.67;30.00;;;;;17.77;40.78;99558.13;5096786;27;45462;-85
2022/04/23 00:18:58;;;;;;;;;31.33;29.33;;;;;17.87;41.05;99580.56;5097718;27;45333;-85
2022/04/23 00:21:25;;;;;;;;;32.33;29.00;;;;;17.89;41.11;99591.19;5088907;27;45403;-85
2022/04/23 00:23:50;;;;;;;;;25.33;24.33;;;;;17.60;41.01;99531.88;5097383;27;45444;-85
2022/04/23 00:26:16;;;;;;;;;25.33;25.33;;;;;17.78;41.00;99561.66;5078051;27;45454;-85
2022/04/23 00:28:41;;;;;;;;;29.00;25.00;;;;;17.85;41.28;99579.00;5077685;27;45515;-85
2022/04/23 00:31:07;;;;;;;;;32.33;26.67;;;;;17.59;41.16;99532.88;5076944;27;45479;-85
2022/04/23 00:33:37;;;;;;;;;1.33;0.00;;;;;17.65;41.80;99543.94;5069681;27;45479;-85
2022/04/23 00:36:04;;;;;;;;;28.67;25.00;;;;;17.82;41.60;99576.59;5097511;27;45394;-85
2022/04/23 00:38:29;;;;;;;;;22.00;20.67;;;;;17.78;41.66;99573.28;5084672;27;45360;-85
2022/04/23 00:40:55;;;;;;;;;26.67;25.33;;;;;17.51;41.89;99537.13;5077017;28;45565;-85
2022/04/23 00:43:28;;;;;;;;;22.33;20.67;;;;;17.56;41.69;99543.91;5076833;28;45376;-85
2022/04/23 00:45:55;;;;;;;;;6.67;6.33;;;;;17.64;41.81;99552.16;5082801;27;45410;-85
2022/04/23 00:48:21;;;;;;;;;20.33;20.33;;;;;17.53;41.83;99539.66;5076988;27;45472;-86
2022/04/23 00:50:49;;;;;;;;;21.33;19.33;;;;;17.59;41.53;99549.03;5077831;27;46499;-85
2022/04/23 00:53:15;;;;;;;;;19.00;17.00;;;;;17.51;41.85;99539.81;5096716;27;45770;-85
2022/04/23 00:55:40;;;;;;;;;26.00;19.33;;;;;17.58;41.77;99550.00;5093939;27;45195;-85
2022/04/23 00:58:06;;;;;;;;;19.33;19.00;;;;;17.58;41.70;99550.84;5093249;27;45357;-85
2022/04/23 01:00:33;;;;;;;;;19.67;18.67;;;;;17.43;41.84;99519.97;5091645;27;45436;-85
2022/04/23 01:02:58;;;;;;;;;24.00;19.67;;;;;17.27;42.11;99488.19;5081361;27;45506;-85
2022/04/23 01:05:24;;;;;;;;;19.00;17.00;;;;;17.52;41.76;99532.59;5096052;27;45397;-85
2022/04/23 01:07:51;;;;;;;;;21.33;19.67;;;;;17.58;41.79;99547.31;5088573;27;45352;-86
2022/04/23 01:10:17;;;;;;;;;23.33;23.33;;;;;17.55;42.04;99545.75;5086925;27;45548;-85
2022/04/23 01:12:45;;;;;;;;;25.67;19.33;;;;;17.54;41.74;99549.47;5086378;27;45389;-85
2022/04/23 01:15:12;;;;;;;;;17.67;17.67;;;;;17.52;42.28;99543.34;5076398;28;45291;-85
2022/04/23 01:17:37;;;;;;;;;21.33;19.00;;;;;17.35;42.05;99509.03;5058337;28;45389;-85
2022/04/23 01:20:14;;;;;;;;;20.67;19.33;;;;;17.47;42.16;99533.00;5088817;27;45286;-85
2022/04/23 01:22:41;;;;;;;;;21.00;19.33;;;;;17.20;42.28;99490.59;5088127;27;45518;-85
2022/04/23 01:25:12;;;;;;;;;17.67;16.33;;;;;17.42;41.88;99529.00;5100368;27;45412;-85
2022/04/23 01:27:38;;;;;;;;;23.00;21.33;;;;;16.99;42.25;99462.94;5093714;27;45227;-85
2022/04/23 01:30:06;;;;;;;;;23.33;20.67;;;;;17.35;42.21;99528.75;5090624;27;45280;-85
2022/04/23 01:32:32;;;;;;;;;20.33;18.33;;;;;17.01;42.22;99469.88;5082926;27;45390;-85
2022/04/23 01:34:57;;;;;;;;;19.33;18.00;;;;;17.36;42.20;99534.97;5099439;27;45357;-85
2022/04/23 01:37:23;;;;;;;;;22.33;19.67;;;;;17.20;42.41;99516.69;5099729;27;45363;-85
2022/04/23 01:39:48;;;;;;;;;23.33;21.00;;;;;17.26;42.58;99516.13;5082044;27;52232;-85
2022/04/23 01:42:17;;;;;;;;;20.33;20.00;;;;;17.32;42.49;99529.00;5097224;27;45405;-85
2022/04/23 01:44:46;;;;;;;;;25.33;23.33;;;;;17.20;42.74;99509.44;5074159;28;45473;-85
2022/04/23 01:47:12;;;;;;;;;24.67;21.00;;;;;17.32;42.49;99528.16;5093438;27;45580;-85
2022/04/23 01:49:37;;;;;;;;;19.67;19.67;;;;;16.70;42.57;99426.03;5097302;27;45518;-85
2022/04/23 01:52:03;;;;;;;;;22.00;21.00;;;;;17.14;42.61;99493.00;5079074;27;45571;-85
2022/04/23 01:54:28;;;;;;;;;19.00;18.67;;;;;17.29;42.50;99521.22;5080062;27;45595;-85
2022/04/23 01:56:57;;;;;;;;;25.00;21.67;;;;;16.98;42.47;99472.03;5090173;27;45539;-85
2022/04/23 01:59:22;;;;;;;;;23.00;20.00;;;;;17.23;42.48;99522.66;5084539;27;46595;-85
2022/04/23 02:01:49;;;;;;;;;23.00;21.67;;;;;17.05;42.90;99494.69;5096790;27;46675;-84
2022/04/23 02:04:14;;;;;;;;;24.67;21.33;;;;;17.20;42.82;99512.13;5081007;27;45539;-84
2022/04/23 02:06:40;;;;;;;;;22.33;20.67;;;;;16.97;42.82;99475.69;5091597;27;45704;-84
2022/04/23 02:09:05;;;;;;;;;19.33;19.33;;;;;17.02;42.84;99494.97;5099131;27;45447;-85
2022/04/23 02:11:31;;;;;;;;;26.00;21.67;;;;;17.20;42.76;99514.81;5098462;27;45329;-85
2022/04/23 02:13:57;;;;;;;;;28.67;23.33;;;;;16.90;42.94;99475.38;5081712;27;45633;-84
2022/04/23 02:16:22;;;;;;;;;19.33;18.00;;;;;17.18;42.80;99514.09;5094008;27;45542;-85
2022/04/23 02:18:47;;;;;;;;;24.33;20.33;;;;;17.04;42.78;99492.97;5081293;27;52877;-84
2022/04/23 02:21:13;;;;;;;;;22.33;22.33;;;;;17.15;42.84;99506.31;5063172;27;45718;-85
2022/04/23 02:23:38;;;;;;;;;19.00;18.33;;;;;16.87;43.00;99473.81;5073440;27;45474;-85
2022/04/23 02:26:05;;;;;;;;;23.67;22.00;;;;;17.12;42.86;99505.75;5079576;27;45646;-85
2022/04/23 02:28:31;;;;;;;;;24.67;23.00;;;;;16.58;42.88;99422.63;5076375;27;46844;-84
2022/04/23 02:30:56;;;;;;;;;18.67;18.67;;;;;16.93;43.04;99482.31;5089999;27;45377;-85
2022/04/23 02:33:22;;;;;;;;;22.33;19.67;;;;;16.93;43.02;99482.31;5084782;27;45761;-85
2022/04/23 02:35:47;;;;;;;;;27.33;24.67;;;;;17.04;43.25;99506.44;5077187;27;45288;-85
2022/04/23 02:38:14;;;;;;;;;24.67;22.00;;;;;16.54;43.25;99421.19;5084594;27;45581;-84
2022/04/23 02:40:40;;;;;;;;;22.00;21.33;;;;;17.00;43.08;99496.97;5091413;27;45504;-85
2022/04/23 02:43:05;;;;;;;;;19.67;18.33;;;;;16.62;43.35;99437.50;5080191;27;45406;-84
2022/04/23 02:45:30;;;;;;;;;19.00;19.00;;;;;16.85;43.33;99472.25;5084438;27;45393;-84
2022/04/23 02:47:56;;;;;;;;;24.00;19.33;;;;;16.65;43.31;99449.81;5078597;27;46091;-85
2022/04/23 02:50:33;;;;;;;;;21.00;21.00;;;;;16.72;43.27;99453.66;5080212;27;45448;-84
2022/04/23 02:52:59;;;;;;;;;20.00;20.00;;;;;16.51;43.58;99417.94;5097252;27;45410;-84
2022/04/23 02:55:29;;;;;;;;;19.33;19.33;;;;;16.86;43.59;99484.75;5086094;27;45977;-85
2022/04/23 02:57:57;;;;;;;;;26.00;20.67;;;;;16.86;43.56;99480.22;5079526;27;48149;-84
2022/04/23 03:00:22;;;;;;;;;21.00;21.00;;;;;16.86;43.59;99472.13;5098176;27;45419;-84
2022/04/23 03:02:47;;;;;;;;;24.00;21.67;;;;;16.65;43.43;99444.44;5065703;27;45376;-84
2022/04/23 03:05:17;;;;;;;;;21.00;20.67;;;;;16.68;43.88;99447.69;5078040;27;45721;-84
2022/04/23 03:07:44;;;;;;;;;28.33;22.67;;;;;16.79;43.78;99467.47;5095662;27;45938;-84
2022/04/23 03:10:12;;;;;;;;;21.33;20.00;;;;;16.64;44.00;99446.25;5087247;27;45250;-84
2022/04/23 03:12:38;;;;;;;;;22.33;19.33;;;;;16.80;44.03;99470.00;5091502;27;45293;-85
2022/04/23 03:15:09;;;;;;;;;25.33;22.33;;;;;16.48;43.86;99407.44;5077912;27;45441;-84
2022/04/23 03:17:36;;;;;;;;;24.67;22.00;;;;;16.65;43.35;99441.75;5090835;27;46180;-84
2022/04/23 03:20:01;;;;;;;;;28.00;22.00;;;;;16.28;43.84;99390.41;5095361;27;45401;-84
2022/04/23 03:22:26;;;;;;;;;23.67;21.00;;;;;16.40;44.16;99414.34;5098264;27;45343;-84
2022/04/23 03:24:52;;;;;;;;;19.00;19.00;;;;;16.60;44.27;99438.59;5097575;27;45497;-84
2022/04/23 03:27:17;;;;;;;;;21.33;20.00;;;;;16.67;44.05;99466.69;5086150;27;45424;-84
2022/04/23 03:29:44;;;;;;;;;22.00;22.00;;;;;16.37;44.18;99421.88;5074373;27;45483;-84
2022/04/23 03:32:10;;;;;;;;;21.33;21.33;;;;;16.60;44.40;99465.50;5088498;27;45405;-84
2022/04/23 03:34:35;;;;;;;;;26.33;22.33;;;;;16.15;44.40;99391.47;5072968;27;45397;-84
2022/04/23 03:37:01;;;;;;;;;20.67;19.00;;;;;16.17;44.20;99408.34;5085634;27;45488;-84
2022/04/23 03:39:26;;;;;;;;;25.33;24.00;;;;;16.50;44.46;99446.66;5085035;27;45349;-84
2022/04/23 03:41:51;;;;;;;;;23.67;20.67;;;;;16.46;44.33;99448.78;5072341;28;45377;-84
2022/04/23 03:44:17;;;;;;;;;23.00;21.00;;;;;16.38;44.60;99437.84;5081131;27;46399;-84
2022/04/23 03:46:42;;;;;;;;;21.00;18.00;;;;;16.42;44.58;99449.19;5071676;27;47443;-85
2022/04/23 03:49:08;;;;;;;;;23.00;21.00;;;;;15.86;44.26;99351.06;5087988;27;45321;-84
2022/04/23 03:51:34;;;;;;;;;18.67;16.33;;;;;15.85;44.47;99340.44;5085952;27;45255;-84
2022/04/23 03:54:00;;;;;;;;;26.33;23.33;;;;;16.39;44.45;99426.13;5079104;27;45530;-84
2022/04/23 03:56:25;;;;;;;;;23.00;22.33;;;;;15.96;44.66;99367.22;5096935;27;45367;-84
2022/04/23 03:58:51;;;;;;;;;24.33;23.00;;;;;16.20;44.92;99394.63;5097178;27;45487;-84
2022/04/23 04:01:17;;;;;;;;;22.67;22.67;;;;;16.35;44.55;99416.63;5080896;27;45325;-84
2022/04/23 04:03:43;;;;;;;;;31.00;29.00;;;;;16.28;44.60;99410.09;5077822;28;45299;-84
2022/04/23 04:06:09;;;;;;;;;26.00;23.67;;;;;16.15;44.65;99406.75;5076973;27;45301;-84
2022/04/23 04:08:34;;;;;;;;;26.33;24.67;;;;;16.09;44.92;99397.41;5071727;27;45436;-84
2022/04/23 04:10:59;;;;;;;;;28.33;26.33;;;;;16.00;45.04;99398.22;5097148;27;45878;-84
2022/04/23 04:13:25;;;;;;;;;33.67;29.33;;;;;16.16;44.84;99430.00;5080939;27;45665;-84
2022/04/23 04:15:50;;;;;;;;;28.00;27.33;;;;;15.96;45.21;99399.47;5077964;27;46333;-84
2022/04/23 04:18:16;;;;;;;;;27.00;23.67;;;;;15.95;45.18;99401.31;5078011;27;45353;-84
2022/04/23 04:20:42;;;;;;;;;24.33;22.00;;;;;15.82;45.51;99380.03;5093730;27;45412;-84
2022/04/23 04:23:07;;;;;;;;;24.33;24.33;;;;;15.93;45.31;99392.53;5077442;27;45254;-84
2022/04/23 04:25:34;;;;;;;;;27.33;23.67;;;;;15.90;45.69;99389.28;5077883;27;46209;-84
2022/04/23 04:28:00;;;;;;;;;22.33;19.00;;;;;15.93;45.38;99392.53;5090679;27;45379;-84
2022/04/23 04:30:26;;;;;;;;;21.33;21.33;;;;;15.69;45.72;99357.06;5060051;27;45460;-84
2022/04/23 04:32:51;;;;;;;;;23.33;20.67;;;;;16.05;45.34;99425.56;5077979;27;45326;-84
2022/04/23 04:35:17;;;;;;;;;21.33;20.00;;;;;15.57;45.40;99349.06;5076761;27;45329;-84
2022/04/23 04:37:42;;;;;;;;;28.33;22.00;;;;;15.57;45.61;99357.13;5080910;27;45468;-84
2022/04/23 04:40:08;;;;;;;;;21.00;18.33;;;;;15.97;45.75;99433.44;5076707;27;45402;-84
2022/04/23 04:42:33;;;;;;;;;19.00;19.00;;;;;15.81;45.64;99405.22;5076841;27;45385;-84
2022/04/23 04:44:59;;;;;;;;;17.67;16.33;;;;;15.87;45.84;99424.47;5089577;27;45996;-84
2022/04/23 04:47:24;;;;;;;;;11.67;10.67;;;;;15.85;45.75;99415.69;5085406;27;45410;-83
2022/04/23 04:49:49;;;;;;;;;17.67;16.33;;;;;15.83;45.91;99427.44;5082587;27;46099;-84
2022/04/23 04:52:14;;;;;;;;;17.67;17.00;;;;;15.74;46.29;99422.84;5091917;27;45385;-84
2022/04/23 04:54:40;;;;;;;;;21.67;18.33;;;;;15.72;46.37;99422.13;5076482;27;46176;-84
2022/04/23 04:57:05;;;;;;;;;15.00;15.00;;;;;15.70;46.35;99426.78;5084382;27;45276;-85
2022/04/23 04:59:35;;;;;;;;;17.67;17.00;;;;;15.70;46.36;99423.22;5083196;27;45306;-84
2022/04/23 05:02:01;;;;;;;;;21.33;21.00;;;;;15.51;46.39;99394.41;5077649;28;45628;-84
2022/04/23 05:04:27;;;;;;;;;18.67;17.00;;;;;15.62;46.25;99410.47;5083286;27;47114;-84
2022/04/23 05:06:52;;;;;;;;;20.67;18.33;;;;;15.59;46.67;99403.53;5081889;27;45563;-84
2022/04/23 05:09:17;;;;;;;;;17.67;17.67;;;;;15.46;46.21;99391.28;5084517;27;45591;-84
2022/04/23 05:11:44;;;;;;;;;18.00;15.33;;;;;15.51;46.33;99383.66;5094225;27;46640;-84
2022/04/23 05:14:09;;;;;;;;;20.67;18.33;;;;;15.42;46.10;99358.44;5079614;27;45371;-85
2022/04/23 05:16:34;;;;;;;;;20.33;18.67;;;;;15.49;46.28;99356.09;5079455;27;45763;-84
2022/04/23 05:19:00;;;;;;;;;18.00;15.00;;;;;15.36;46.19;99345.56;5093169;27;45290;-85
2022/04/23 05:21:25;;;;;;;;;19.00;17.67;;;;;15.60;46.06;99385.56;5083968;27;45533;-85
2022/04/23 05:23:50;;;;;;;;;19.33;19.33;;;;;15.73;46.33;99413.09;5078487;27;47219;-84
2022/04/23 05:26:16;;;;;;;;;19.67;18.67;;;;;15.52;46.06;99370.13;5093090;27;45458;-84
2022/04/23 05:28:41;;;;;;;;;20.00;19.67;;;;;15.78;46.12;99413.53;5089677;27;45218;-85
2022/04/23 05:31:08;;;;;;;;;23.33;20.33;;;;;15.66;46.11;99387.69;5086655;27;45499;-85
2022/04/23 05:33:34;;;;;;;;;18.33;17.00;;;;;15.88;46.19;99412.75;5103639;27;45698;-84
2022/04/23 05:36:00;;;;;;;;;23.67;19.00;;;;;15.79;45.88;99409.03;5081471;27;45352;-84
2022/04/23 05:38:25;;;;;;;;;16.00;15.67;;;;;15.38;45.95;99338.22;5092016;27;45560;-83
2022/04/23 05:40:51;;;;;;;;;23.33;20.67;;;;;15.56;46.13;99359.94;5079659;27;45508;-83
2022/04/23 05:43:16;;;;;;;;;23.00;20.00;;;;;15.53;46.30;99349.47;5080952;27;46313;-84
2022/04/23 05:45:43;;;;;;;;;17.00;17.00;;;;;15.47;46.22;99340.09;5092390;27;45368;-84
2022/04/23 05:48:08;;;;;;;;;20.00;17.00;;;;;15.82;46.09;99379.19;5094265;27;45658;-84
2022/04/23 05:50:33;;;;;;;;;17.33;17.33;;;;;15.91;45.86;99388.28;5087711;27;45456;-84
2022/04/23 05:52:59;;;;;;;;;19.00;17.00;;;;;15.85;45.96;99380.75;5098008;27;46169;-84
2022/04/23 05:55:24;;;;;;;;;18.33;18.00;;;;;15.96;46.16;99391.41;5097663;27;45604;-84
2022/04/23 05:57:50;;;;;;;;;21.67;18.33;;;;;15.92;46.13;99376.53;5080818;27;45533;-84
2022/04/23 06:00:16;;;;;;;;;18.00;18.00;;;;;15.92;46.11;99360.41;5099743;27;45578;-84
2022/04/23 06:02:41;;;;;;;;;23.00;19.00;;;;;15.99;45.92;99377.69;5099365;27;46116;-84
2022/04/23 06:05:07;;;;;;;;;21.00;21.00;;;;;15.96;45.82;99359.16;5099335;27;45482;-84
2022/04/23 06:07:33;;;;;;;;;21.67;19.67;;;;;16.17;45.79;99391.34;5082701;27;45521;-84
2022/04/23 06:09:59;;;;;;;;;19.67;18.00;;;;;16.10;45.86;99379.44;5070968;27;45616;-84
2022/04/23 06:12:24;;;;;;;;;19.33;18.67;;;;;16.00;45.69;99364.13;5105750;27;45551;-84
2022/04/23 06:14:49;;;;;;;;;23.00;19.67;;;;;15.63;45.44;99318.13;5092054;27;45565;-84
2022/04/23 06:17:15;;;;;;;;;19.00;18.67;;;;;16.21;46.05;99392.78;5085562;27;45529;-82
2022/04/23 06:19:42;;;;;;;;;23.00;20.00;;;;;16.27;45.56;99394.06;5096963;27;45544;-84
2022/04/23 06:22:09;;;;;;;;;21.00;18.33;;;;;16.01;45.63;99359.59;5084774;27;45658;-86
2022/04/23 06:24:35;;;;;;;;;20.67;18.00;;;;;16.24;45.74;99414.03;5080448;27;46034;-87
2022/04/23 06:27:01;;;;;;;;;21.33;18.00;;;;;15.60;46.08;99319.25;5085672;27;45392;-88
2022/04/23 06:29:26;;;;;;;;;20.67;19.33;;;;;16.26;45.92;99420.13;5101184;27;45437;-88
2022/04/23 06:31:51;;;;;;;;;19.00;18.00;;;;;15.97;45.74;99372.47;5073770;27;46965;-88
2022/04/23 06:34:17;;;;;;;;;24.00;20.33;;;;;16.33;45.66;99420.44;5092867;27;46548;-90
2022/04/23 06:36:43;;;;;;;;;20.33;20.33;;;;;16.35;45.87;99418.47;5080667;27;45475;-90
2022/04/23 06:39:09;;;;;;;;;22.67;20.67;;;;;16.34;45.62;99411.34;5080721;27;45525;-92
2022/04/23 06:41:34;;;;;;;;;20.67;20.67;;;;;16.17;45.48;99369.84;5073581;28;48354;-91
2022/04/23 06:44:00;;;;;;;;;18.33;18.00;;;;;16.25;45.73;99378.94;5086712;27;45576;-83
2022/04/23 06:46:25;;;;;;;;;20.33;20.33;;;;;16.56;45.72;99413.84;5083035;27;45402;-83
2022/04/23 06:48:51;;;;;;;;;22.67;20.67;;;;;15.95;45.48;99315.34;5083347;27;45639;-83
2022/04/23 06:51:19;;;;;;;;;25.33;21.00;;;;;16.09;45.69;99343.66;5075617;27;47358;-85
2022/04/23 06:53:45;;;;;;;;;20.00;20.00;;;;;16.18;45.20;99352.75;5067183;27;45494;-84
2022/04/23 06:56:10;;;;;;;;;28.00;23.00;;;;;16.51;45.31;99409.88;5085856;27;45342;-83
2022/04/23 06:58:36;;;;;;;;;22.67;18.67;;;;;16.67;45.48;99412.88;5085452;27;45574;-84
2022/04/23 07:01:01;;;;;;;;;20.67;20.67;;;;;16.68;45.31;99417.25;5064570;27;47111;-87
2022/04/23 07:03:27;;;;;;;;;25.00;18.67;;;;;16.30;45.32;99345.44;5075956;27;45780;-88
2022/04/23 07:05:53;;;;;;;;;23.00;20.33;;;;;16.30;45.23;99334.66;5081508;27;45346;-89
2022/04/23 07:08:18;;;;;;;;;21.00;20.33;;;;;16.20;44.60;99308.63;5074280;27;45602;-89
2022/04/23 07:10:46;;;;;;;;;20.67;18.00;;;;;16.25;45.50;99321.63;5084547;27;47184;-91
2022/04/23 07:13:12;;;;;;;;;21.33;20.33;;;;;17.00;44.86;99417.06;5065365;27;45546;-90
2022/04/23 07:15:39;;;;;;;;;22.67;19.67;;;;;17.10;44.74;99419.75;5086151;27;45520;-89
2022/04/23 07:18:06;;;;;;;;;21.33;21.00;;;;;16.87;44.33;99379.63;5082581;27;45313;-86
2022/04/23 07:20:33;;;;;;;;;28.00;25.67;;;;;17.10;44.52;99411.66;5089635;27;45191;-86
2022/04/23 07:25:42;;;;;;;;;17.33;16.33;;;;;17.02;44.31;99381.91;5087246;27;45290;-87
2022/04/23 07:28:08;;;;;;;;;23.00;22.00;;;;;16.58;44.33;99289.97;5069857;27;45353;-87
2022/04/23 07:30:35;;;;;;;;;21.33;18.33;;;;;17.32;44.13;99398.91;5091794;27;46524;-86
2022/04/23 07:33:01;;;;;;;;;20.67;19.67;;;;;16.86;44.08;99326.81;5069911;27;45968;-86
2022/04/23 07:38:19;;;;;;;;;21.33;19.67;;;;;17.33;44.20;99403.31;5091889;27;45618;-86
2022/04/23 07:40:46;;;;;;;;;23.33;19.67;;;;;17.09;44.27;99354.28;5087483;27;46324;-87
2022/04/23 07:43:13;;;;;;;;;24.33;22.00;;;;;17.45;44.43;99402.16;5087547;27;45430;-86
2022/04/23 07:45:40;;;;;;;;;22.00;20.67;;;;;17.43;44.08;99387.97;5088377;27;45436;-87
2022/04/23 07:48:07;;;;;;;;;20.67;19.33;;;;;17.31;44.16;99363.03;5083874;27;45358;-86
2022/04/23 07:50:34;;;;;;;;;22.33;20.33;;;;;17.12;44.28;99347.75;5085029;27;45404;-86
2022/04/23 07:52:59;;;;;;;;;20.33;19.00;;;;;17.40;44.33;99386.41;5072194;27;45552;-86
2022/04/23 07:55:25;;;;;;;;;23.67;21.67;;;;;17.42;44.23;99388.94;5083300;27;45485;-86
2022/04/23 07:57:50;;;;;;;;;26.67;21.67;;;;;17.07;44.47;99348.19;5064654;28;45389;-87
2022/04/23 08:00:16;;;;;;;;;22.33;22.00;;;;;17.23;44.35;99373.66;5088178;27;46074;-87
2022/04/23 08:02:41;;;;;;;;;22.33;22.33;;;;;17.27;44.72;99367.00;5088849;27;45573;-88
2022/04/23 08:05:09;;;;;;;;;24.33;22.00;;;;;17.41;44.53;99366.56;5087217;27;45526;-89
2022/04/23 08:07:35;;;;;;;;;22.67;21.00;;;;;16.90;44.42;99287.00;5091855;27;45405;-89
2022/04/23 08:10:02;;;;;;;;;20.67;19.67;;;;;17.49;44.31;99341.59;5077464;27;47026;-88
2022/04/23 08:12:28;;;;;;;;;25.67;22.00;;;;;17.42;43.87;99308.13;5076603;27;45285;-89
2022/04/23 08:14:53;;;;;;;;;22.00;21.33;;;;;17.79;44.13;99356.66;5081549;27;45207;-87
2022/04/23 08:17:18;;;;;;;;;23.67;22.33;;;;;18.06;43.86;99382.00;5085818;27;45408;-87
2022/04/23 08:19:44;;;;;;;;;24.67;22.33;;;;;17.81;43.51;99329.59;5068439;27;47001;-87
2022/04/23 08:22:09;;;;;;;;;22.67;21.67;;;;;18.04;43.09;99344.38;5096473;27;45351;-88
2022/04/23 08:24:34;;;;;;;;;23.00;22.00;;;;;18.45;43.51;99377.25;5067552;27;45509;-86
2022/04/23 08:26:59;;;;;;;;;23.67;23.00;;;;;18.61;42.66;99376.56;5078193;27;45567;-87
2022/04/23 08:32:09;;;;;;;;;27.67;24.33;;;;;18.46;42.52;99302.56;5089386;27;45496;-91
2022/04/23 08:34:34;;;;;;;;;18.33;17.33;;;;;18.51;42.07;99284.88;5095358;27;45480;-91
2022/04/23 08:37:00;;;;;;;;;26.67;24.00;;;;;19.18;42.24;99370.91;5084609;27;45341;-88
2022/04/23 08:39:25;;;;;;;;;25.00;24.00;;;;;18.84;41.92;99289.78;5077953;27;47163;-89
2022/04/23 08:41:51;;;;;;;;;26.67;24.67;;;;;19.42;41.72;99367.53;5092472;27;45521;-89
2022/04/23 08:44:16;;;;;;;;;24.00;21.67;;;;;19.53;41.66;99371.84;5074071;27;45541;-89
2022/04/23 08:46:42;;;;;;;;;25.67;24.33;;;;;19.20;41.55;99301.38;5088818;27;45325;-89
2022/04/23 08:49:16;;;;;;;;;24.67;23.33;;;;;19.71;41.20;99367.25;5079970;27;47526;-89
2022/04/23 08:51:45;;;;;;;;;23.00;21.67;;;;;19.77;40.90;99366.63;5079328;27;45507;-88
2022/04/23 08:54:12;;;;;;;;;21.67;21.67;;;;;19.84;41.11;99368.69;5088326;27;45533;-88
2022/04/23 08:56:40;;;;;;;;;20.00;20.00;;;;;19.87;41.35;99360.25;5090593;27;45480;-88
2022/04/23 08:59:06;;;;;;;;;26.50;24.50;;;;;19.84;40.84;99366.00;5075948;27;46992;-88
2022/04/23 09:01:33;;;;;;;;;24.33;22.33;;;;;19.53;41.35;99323.22;5083954;27;45524;-88
2022/04/23 09:03:59;;;;;;;;;23.33;22.33;;;;;19.85;41.34;99368.50;5086842;27;45435;-88
2022/04/23 09:06:31;;;;;;;;;27.33;23.33;;;;;19.90;40.95;99368.03;5083775;27;45493;-89
2022/04/23 09:09:19;;;;;;;;;26.67;24.00;;;;;19.56;41.06;99321.00;5085607;27;45488;-89
2022/04/23 09:11:49;;;;;;;;;22.00;22.00;;;;;19.80;41.42;99362.75;5088630;27;45409;-89
2022/04/23 09:14:26;;;;;;;;;25.00;23.67;;;;;19.28;41.38;99290.59;5077702;27;45545;-88
2022/04/23 09:25:16;;;;;;;;;30.67;22.33;;;;;19.11;41.40;99226.69;5087971;27;45508;-89
2022/04/23 09:27:43;;;;;;;;;24.33;22.00;;;;;19.60;40.80;99298.06;5070282;28;45554;-90
2022/04/23 09:30:10;;;;;;;;;23.33;22.00;;;;;19.15;41.41;99212.72;5087264;27;46291;-88
2022/04/23 09:32:36;;;;;;;;;25.00;21.33;;;;;19.15;41.32;99226.22;5088053;27;45532;-91
2022/04/23 09:35:06;;;;;;;;;29.33;21.67;;;;;19.49;41.47;99286.69;5075882;27;45568;-90
2022/04/23 09:38:11;;;;;;;;;24.00;21.33;;;;;19.52;41.26;99305.28;5090255;27;45445;-90
2022/04/23 09:40:19;;;;;;;;;26.33;23.67;;;;;19.84;41.72;99344.34;5090202;27;46285;-88
2022/04/23 09:43:02;;;;;;;;;21.67;21.33;;;;;19.46;41.96;99274.34;5069890;27;45454;-89
2022/04/23 09:45:30;;;;;;;;;26.00;23.33;;;;;20.19;41.55;99363.09;5076539;27;45453;-90
2022/04/23 09:48:05;;;;;;;;;22.67;19.00;;;;;19.90;41.31;99281.50;5086069;27;45478;-86
2022/04/23 09:50:37;;;;;;;;;21.33;19.33;;;;;20.41;41.04;99331.03;5094348;27;45538;-89
2022/04/23 09:53:10;;;;;;;;;23.67;21.00;;;;;20.90;40.72;99350.13;5086855;27;45394;-89
2022/04/23 09:55:36;;;;;;;;;23.00;21.00;;;;;21.20;39.78;99309.81;5072851;27;45672;-89
2022/04/23 09:58:04;;;;;;;;;26.00;23.33;;;;;21.85;38.64;99346.84;5087037;27;45475;-89
2022/04/23 10:00:30;;;;;;;;;22.67;20.67;;;;;22.59;38.34;99341.94;5075943;27;47250;-88
2022/04/23 10:02:59;;;;;;;;;27.33;25.67;;;;;23.48;36.90;99338.72;5073488;27;45675;-91
2022/04/23 10:05:26;;;;;;;;;26.67;21.00;;;;;23.91;35.38;99306.34;5088869;27;45572;-89
2022/04/23 10:07:56;;;;;;;;;20.67;18.33;;;;;24.12;34.41;99249.22;5077384;27;45567;-88
2022/04/23 10:10:26;;;;;;;;;23.33;20.67;;;;;24.18;33.84;99196.72;5086547;27;47002;-91
2022/04/23 10:12:53;;;;;;;;;23.67;21.00;;;;;24.47;33.21;99170.44;5079260;27;45495;-89
2022/04/23 10:15:19;;;;;;;;;19.33;16.00;;;;;25.24;32.80;99248.66;5089842;27;45543;-92
2022/04/23 10:17:47;;;;;;;;;17.33;17.33;;;;;25.58;32.03;99235.22;5075314;27;45384;-89
2022/04/23 10:20:13;;;;;;;;;23.00;20.00;;;;;26.43;31.59;99331.41;5085064;27;46102;-91
2022/04/23 10:22:54;;;;;;;;;6.67;6.00;;;;;26.50;31.34;99307.69;5091934;27;45510;-91
2022/04/23 10:25:38;;;;;;;;;20.00;18.00;;;;;27.04;29.95;99331.41;5086466;27;45453;-86
2022/04/23 10:28:04;;;;;;;;;16.33;15.67;;;;;27.37;30.47;99311.44;5090309;27;45737;-88
2022/04/23 10:30:31;;;;;;;;;17.00;15.33;;;;;27.35;29.69;99284.28;5075866;27;47772;-90
2022/04/23 10:32:56;;;;;;;;;17.67;17.67;;;;;27.66;29.55;99328.47;5085623;27;45299;-91
2022/04/23 10:35:21;;;;;;;;;16.67;16.67;;;;;27.41;29.53;99309.94;5100224;27;45668;-93
2022/04/23 10:37:50;;;;;;;;;20.33;15.33;;;;;26.96;29.83;99241.34;5072418;27;45541;-92
2022/04/23 10:40:20;;;;;;;;;75.33;47.33;;;;;26.85;30.18;99259.19;5091431;27;45625;-87
2022/04/23 10:43:04;;;;;;;;;19.67;18.00;;;;;27.03;30.58;99326.13;5073462;27;45905;-88
2022/04/23 10:45:37;;;;;;;;;18.67;18.00;;;;;27.06;31.02;99317.50;5085039;27;45516;-91
2022/04/23 10:48:24;;;;;;;;;21.00;19.00;;;;;27.25;30.00;99316.69;5071300;27;45459;-90
2022/04/23 10:51:06;;;;;;;;;22.67;20.33;;;;;27.56;30.05;99318.78;5075651;27;48445;-90
2022/04/23 10:53:37;;;;;;;;;16.33;16.00;;;;;27.71;30.34;99317.69;5086480;27;45507;-93
2022/04/23 10:56:10;;;;;;;;;22.00;20.00;;;;;27.16;30.37;99223.03;5087413;27;45318;-93
2022/04/23 10:58:38;;;;;;;;;18.00;17.00;;;;;27.72;29.74;99292.00;5080903;27;45602;-91
2022/04/23 11:01:30;;;;;;;;;18.67;17.33;;;;;28.14;29.96;99315.31;5094243;27;45992;-90
2022/04/23 11:03:56;;;;;;;;;15.00;13.67;;;;;28.45;29.24;99321.91;5085585;27;45633;-89
2022/04/23 11:12:38;;;;;;;;;17.67;17.67;;;;;30.86;26.75;99308.44;5083461;27;45471;-87
2022/04/23 11:15:15;;;;;;;;;18.67;17.33;;;;;31.51;25.54;99309.50;5075633;27;45746;-91
2022/04/23 11:17:41;;;;;;;;;15.00;14.00;;;;;32.01;25.57;99302.66;5070094;27;45451;-92
2022/04/23 11:20:10;;;;;;;;;16.67;14.33;;;;;32.11;25.02;99278.09;5079989;27;45189;-90
2022/04/23 11:22:35;;;;;;;;;17.67;17.00;;;;;31.49;25.10;99174.81;5090741;27;46548;-89
2022/04/23 11:25:01;;;;;;;;;19.67;18.67;;;;;31.72;25.00;99226.25;5079640;27;45974;-89
2022/04/23 11:27:38;;;;;;;;;15.33;15.33;;;;;31.94;25.17;99300.03;5091514;27;45438;-88
2022/04/23 11:30:05;;;;;;;;;15.67;13.67;;;;;31.10;25.01;99190.13;5075638;27;45504;-89
2022/04/23 11:32:32;;;;;;;;;14.67;12.67;;;;;31.57;25.59;99297.53;5070434;27;47125;-90
2022/04/23 11:34:59;;;;;;;;;16.67;15.33;;;;;31.35;25.46;99266.97;5093922;27;45436;-94
2022/04/23 11:37:45;;;;;;;;;14.67;14.67;;;;;30.14;25.19;99060.13;5079536;27;45297;-90
2022/04/23 11:40:17;;;;;;;;;15.00;12.00;;;;;31.20;25.18;99255.59;5094445;27;45306;-93